Time,TemperatureF,DewpointF,PressureIn,WindDirection,WindDirectionDegrees,WindSpeedMPH,WindSpeedGustMPH,Humidity,HourlyPrecipIn,Conditions,Clouds,dailyrainin,SoftwareType,DateUTC
2013-12-16 00:07:00,32.5,29.0,30.30,WNW,289,0.0,-999.0,86,-99.99,,,0.00,weatherlink.com 1.10,2013-12-16 06:07:00,
2013-12-16 00:22:00,32.2,29.0,30.30,WNW,289,0.0,-999.0,86,-99.99,,,0.00,weatherlink.com 1.10,2013-12-16 06:22:00,
2013-12-16 00:37:00,31.9,29.0,30.30,WNW,289,0.0,-999.0,87,-99.99,,,0.00,weatherlink.com 1.10,2013-12-16 06:37:00,
2013-12-16 00:52:00,31.8,28.0,30.30,WNW,289,0.0,-999.0,87,-99.99,,,0.00,weatherlink.com 1.10,2013-12-16 06:52:00,
2013-12-16 01:07:00,31.5,28.0,30.30,WNW,289,0.0,-999.0,88,-99.99,,,0.00,weatherlink.com 1.10,2013-12-16 07:07:00,
2013-12-16 01:22:00,31.2,28.0,30.30,WNW,289,0.0,-999.0,88,-99.99,,,0.00,weatherlink.com 1.10,2013-12-16 07:22:00,
2013-12-16 01:37:00,31.0,28.0,30.30,WNW,289,0.0,-999.0,88,-99.99,,,0.00,weatherlink.com 1.10,2013-12-16 07:37:00,
2013-12-16 01:52:00,30.7,28.0,30.30,WNW,289,0.0,-999.0,88,-99.99,,,0.00,weatherlink.com 1.10,2013-12-16 07:52:00,
2013-12-16 02:07:00,30.4,27.0,30.31,WNW,289,0.0,-999.0,88,-99.99,,,0.00,weatherlink.com 1.10,2013-12-16 08:07:00,
2013-12-16 02:22:00,30.0,27.0,30.31,WNW,289,0.0,-999.0,88,-99.99,,,0.00,weatherlink.com 1.10,2013-12-16 08:22:00,
2013-12-16 02:37:00,29.7,27.0,30.30,WNW,289,0.0,-999.0,89,-99.99,,,0.00,weatherlink.com 1.10,2013-12-16 08:37:00,
2013-12-16 02:52:00,29.7,27.0,30.30,WNW,289,0.0,-999.0,89,-99.99,,,0.00,weatherlink.com 1.10,2013-12-16 08:52:00,
2013-12-16 03:07:00,29.7,27.0,30.31,WNW,289,0.0,-999.0,89,-99.99,,,0.00,weatherlink.com 1.10,2013-12-16 09:07:00,
2013-12-16 03:22:00,29.5,27.0,30.30,WNW,289,0.0,-999.0,89,-99.99,,,0.00,weatherlink.com 1.10,2013-12-16 09:22:00,
2013-12-16 03:37:00,29.4,27.0,30.30,WNW,289,0.0,-999.0,90,-99.99,,,0.00,weatherlink.com 1.10,2013-12-16 09:37:00,
2013-12-16 03:52:00,29.3,27.0,30.30,WNW,289,0.0,-999.0,90,-99.99,,,0.00,weatherlink.com 1.10,2013-12-16 09:52:00,
2013-12-16 04:07:00,29.1,27.0,30.30,WNW,289,0.0,-999.0,90,-99.99,,,0.00,weatherlink.com 1.10,2013-12-16 10:07:00,
2013-12-16 04:22:00,29.1,27.0,30.29,WNW,289,0.0,-999.0,90,-99.99,,,0.00,weatherlink.com 1.10,2013-12-16 10:22:00,
2013-12-16 04:37:00,29.1,27.0,30.29,WNW,289,0.0,-999.0,90,-99.99,,,0.00,weatherlink.com 1.10,2013-12-16 10:37:00,
2013-12-16 04:52:00,29.0,27.0,30.29,WNW,289,0.0,-999.0,91,-99.99,,,0.00,weatherlink.com 1.10,2013-12-16 10:52:00,
2013-12-16 05:07:00,28.8,27.0,30.28,WNW,289,0.0,-999.0,91,-99.99,,,0.00,weatherlink.com 1.10,2013-12-16 11:07:00,
2013-12-16 05:22:00,28.8,27.0,30.28,WNW,289,0.0,-999.0,91,-99.99,,,0.00,weatherlink.com 1.10,2013-12-16 11:22:00,
2013-12-16 05:37:00,28.8,27.0,30.28,WNW,289,0.0,-999.0,91,-99.99,,,0.00,weatherlink.com 1.10,2013-12-16 11:37:00,
2013-12-16 05:52:00,29.0,27.0,30.28,WNW,289,0.0,-999.0,92,-99.99,,,0.00,weatherlink.com 1.10,2013-12-16 11:52:00,
2013-12-16 06:07:00,29.3,27.0,30.29,WNW,289,0.0,-999.0,92,-99.99,,,0.00,weatherlink.com 1.10,2013-12-16 12:07:00,
2013-12-16 06:22:00,29.4,27.0,30.30,WNW,289,0.0,-999.0,92,-99.99,,,0.00,weatherlink.com 1.10,2013-12-16 12:22:00,
2013-12-16 06:37:00,29.4,27.0,30.30,WNW,289,0.0,-999.0,92,-99.99,,,0.00,weatherlink.com 1.10,2013-12-16 12:37:00,
2013-12-16 06:52:00,29.1,27.0,30.31,WNW,289,0.0,-999.0,92,-99.99,,,0.00,weatherlink.com 1.10,2013-12-16 12:52:00,
2013-12-16 07:07:00,28.8,27.0,30.31,WNW,289,0.0,-999.0,92,-99.99,,,0.00,weatherlink.com 1.10,2013-12-16 13:07:00,
2013-12-16 07:22:00,28.4,26.0,30.32,WNW,289,0.0,-999.0,92,-99.99,,,0.00,weatherlink.com 1.10,2013-12-16 13:22:00,
2013-12-16 07:37:00,28.2,26.0,30.32,WNW,289,0.0,-999.0,92,-99.99,,,0.00,weatherlink.com 1.10,2013-12-16 13:37:00,
2013-12-16 07:52:00,28.2,26.0,30.32,WNW,289,0.0,-999.0,92,-99.99,,,0.00,weatherlink.com 1.10,2013-12-16 13:52:00,
2013-12-16 08:07:00,28.5,27.0,30.33,WNW,289,0.0,-999.0,93,-99.99,,,0.00,weatherlink.com 1.10,2013-12-16 14:07:00,
2013-12-16 08:22:00,31.3,30.0,30.33,WNW,289,0.0,-999.0,95,-99.99,,,0.00,weatherlink.com 1.10,2013-12-16 14:22:00,
2013-12-16 08:37:00,34.7,33.0,30.33,WNW,289,0.0,-999.0,94,-99.99,,,0.00,weatherlink.com 1.10,2013-12-16 14:37:00,
2013-12-16 08:52:00,37.3,36.0,30.32,WNW,289,0.0,-999.0,95,-99.99,,,0.00,weatherlink.com 1.10,2013-12-16 14:52:00,
2013-12-16 09:07:00,39.3,38.0,30.32,WNW,289,0.0,-999.0,94,-99.99,,,0.00,weatherlink.com 1.10,2013-12-16 15:07:00,
2013-12-16 09:22:00,40.6,39.0,30.33,SW,220,1.0,-999.0,92,-99.99,,,0.00,weatherlink.com 1.10,2013-12-16 15:22:00,
2013-12-16 09:37:00,42.3,39.0,30.33,SW,220,0.0,-999.0,89,-99.99,,,0.00,weatherlink.com 1.10,2013-12-16 15:37:00,
2013-12-16 09:52:00,44.1,40.0,30.33,SSW,208,4.0,-999.0,84,-99.99,,,0.00,weatherlink.com 1.10,2013-12-16 15:52:00,
2013-12-16 10:07:00,45.7,39.0,30.33,South,184,1.0,-999.0,78,-99.99,,,0.00,weatherlink.com 1.10,2013-12-16 16:07:00,
2013-12-16 10:22:00,47.6,39.0,30.33,SW,226,0.0,-999.0,73,-99.99,,,0.00,weatherlink.com 1.10,2013-12-16 16:22:00,
2013-12-16 10:37:00,49.5,40.0,30.32,SW,223,2.0,-999.0,69,-99.99,,,0.00,weatherlink.com 1.10,2013-12-16 16:37:00,
2013-12-16 10:52:00,51.7,39.0,30.32,SSW,196,0.0,-999.0,63,-99.99,,,0.00,weatherlink.com 1.10,2013-12-16 16:52:00,
2013-12-16 11:07:00,52.9,38.0,30.31,WSW,258,2.0,-999.0,58,-99.99,,,0.00,weatherlink.com 1.10,2013-12-16 17:07:00,
2013-12-16 11:22:00,53.5,37.0,30.31,WSW,254,2.0,-999.0,53,-99.99,,,0.00,weatherlink.com 1.10,2013-12-16 17:22:00,
2013-12-16 11:37:00,55.0,37.0,30.30,SW,227,1.0,-999.0,51,-99.99,,,0.00,weatherlink.com 1.10,2013-12-16 17:37:00,
2013-12-16 11:52:00,56.0,36.0,30.30,SSW,200,0.0,-999.0,47,-99.99,,,0.00,weatherlink.com 1.10,2013-12-16 17:52:00,
2013-12-16 12:07:00,56.9,36.0,30.28,SSW,205,2.0,-999.0,45,-99.99,,,0.00,weatherlink.com 1.10,2013-12-16 18:07:00,
2013-12-16 12:22:00,57.6,34.0,30.27,South,172,0.0,-999.0,41,-99.99,,,0.00,weatherlink.com 1.10,2013-12-16 18:22:00,
2013-12-16 12:37:00,58.7,34.0,30.26,South,175,6.0,-999.0,39,-99.99,,,0.00,weatherlink.com 1.10,2013-12-16 18:37:00,
2013-12-16 12:52:00,59.3,33.0,30.25,SSE,157,1.0,-999.0,37,-99.99,,,0.00,weatherlink.com 1.10,2013-12-16 18:52:00,
2013-12-16 13:07:00,59.9,34.0,30.24,WSW,248,1.0,-999.0,38,-99.99,,,0.00,weatherlink.com 1.10,2013-12-16 19:07:00,
2013-12-16 13:22:00,60.4,32.0,30.24,South,174,1.0,-999.0,34,-99.99,,,0.00,weatherlink.com 1.10,2013-12-16 19:22:00,
2013-12-16 13:37:00,61.2,30.0,30.23,SSW,195,1.0,-999.0,31,-99.99,,,0.00,weatherlink.com 1.10,2013-12-16 19:37:00,
2013-12-16 13:52:00,61.3,31.0,30.22,SSE,157,2.0,-999.0,32,-99.99,,,0.00,weatherlink.com 1.10,2013-12-16 19:52:00,
2013-12-16 14:07:00,62.1,31.0,30.22,West,280,0.0,-999.0,31,-99.99,,,0.00,weatherlink.com 1.10,2013-12-16 20:07:00,
2013-12-16 14:22:00,62.0,32.0,30.21,South,188,2.0,-999.0,33,-99.99,,,0.00,weatherlink.com 1.10,2013-12-16 20:22:00,
2013-12-16 14:37:00,62.1,32.0,30.21,South,181,0.0,-999.0,32,-99.99,,,0.00,weatherlink.com 1.10,2013-12-16 20:37:00,
2013-12-16 14:52:00,61.6,34.0,30.21,WSW,246,4.0,-999.0,35,-99.99,,,0.00,weatherlink.com 1.10,2013-12-16 20:52:00,
2013-12-16 15:07:00,61.2,32.0,30.21,South,179,2.0,-999.0,34,-99.99,,,0.00,weatherlink.com 1.10,2013-12-16 21:07:00,
2013-12-16 15:22:00,60.7,33.0,30.21,SSE,160,0.0,-999.0,35,-99.99,,,0.00,weatherlink.com 1.10,2013-12-16 21:22:00,
2013-12-16 15:37:00,60.5,33.0,30.21,SSE,168,0.0,-999.0,35,-99.99,,,0.00,weatherlink.com 1.10,2013-12-16 21:37:00,
2013-12-16 15:52:00,60.2,33.0,30.21,SSW,210,0.0,-999.0,36,-99.99,,,0.00,weatherlink.com 1.10,2013-12-16 21:52:00,
2013-12-16 16:07:00,59.9,35.0,30.22,SSW,208,0.0,-999.0,39,-99.99,,,0.00,weatherlink.com 1.10,2013-12-16 22:07:00,
2013-12-16 16:22:00,59.3,35.0,30.22,WSW,258,0.0,-999.0,40,-99.99,,,0.00,weatherlink.com 1.10,2013-12-16 22:22:00,
2013-12-16 16:37:00,58.7,35.0,30.22,WSW,258,0.0,-999.0,42,-99.99,,,0.00,weatherlink.com 1.10,2013-12-16 22:37:00,
2013-12-16 16:52:00,58.0,36.0,30.23,WSW,258,0.0,-999.0,44,-99.99,,,0.00,weatherlink.com 1.10,2013-12-16 22:52:00,
2013-12-16 17:07:00,56.9,37.0,30.22,WSW,258,0.0,-999.0,47,-99.99,,,0.00,weatherlink.com 1.10,2013-12-16 23:07:00,
2013-12-16 17:22:00,55.3,36.0,30.23,WSW,258,0.0,-999.0,49,-99.99,,,0.00,weatherlink.com 1.10,2013-12-16 23:22:00,
2013-12-16 17:37:00,53.8,36.0,30.23,WSW,258,0.0,-999.0,52,-99.99,,,0.00,weatherlink.com 1.10,2013-12-16 23:37:00,
2013-12-16 17:52:00,52.2,36.0,30.23,WSW,258,0.0,-999.0,55,-99.99,,,0.00,weatherlink.com 1.10,2013-12-16 23:52:00,
2013-12-16 18:07:00,50.7,36.0,30.24,WSW,258,0.0,-999.0,57,-99.99,,,0.00,weatherlink.com 1.10,2013-12-17 00:07:00,
2013-12-16 18:22:00,49.4,36.0,30.24,WSW,258,0.0,-999.0,61,-99.99,,,0.00,weatherlink.com 1.10,2013-12-17 00:22:00,
2013-12-16 18:37:00,48.2,36.0,30.24,WSW,258,0.0,-999.0,62,-99.99,,,0.00,weatherlink.com 1.10,2013-12-17 00:37:00,
2013-12-16 18:52:00,47.0,35.0,30.25,WSW,258,0.0,-999.0,63,-99.99,,,0.00,weatherlink.com 1.10,2013-12-17 00:52:00,
2013-12-16 19:07:00,45.8,34.0,30.25,WSW,258,0.0,-999.0,63,-99.99,,,0.00,weatherlink.com 1.10,2013-12-17 01:07:00,
2013-12-16 19:22:00,45.1,35.0,30.25,WSW,258,0.0,-999.0,68,-99.99,,,0.00,weatherlink.com 1.10,2013-12-17 01:22:00,
2013-12-16 19:37:00,44.3,35.0,30.26,WSW,258,0.0,-999.0,70,-99.99,,,0.00,weatherlink.com 1.10,2013-12-17 01:37:00,
2013-12-16 19:52:00,43.5,34.0,30.26,WSW,258,0.0,-999.0,70,-99.99,,,0.00,weatherlink.com 1.10,2013-12-17 01:52:00,
2013-12-16 20:07:00,42.9,34.0,30.27,WSW,258,0.0,-999.0,72,-99.99,,,0.00,weatherlink.com 1.10,2013-12-17 02:07:00,
2013-12-16 20:22:00,42.2,34.0,30.27,WSW,258,0.0,-999.0,74,-99.99,,,0.00,weatherlink.com 1.10,2013-12-17 02:22:00,
2013-12-16 20:37:00,41.8,35.0,30.27,WSW,258,0.0,-999.0,77,-99.99,,,0.00,weatherlink.com 1.10,2013-12-17 02:37:00,
2013-12-16 20:52:00,41.5,35.0,30.27,WSW,258,0.0,-999.0,79,-99.99,,,0.00,weatherlink.com 1.10,2013-12-17 02:52:00,
2013-12-16 21:07:00,41.2,36.0,30.27,WSW,258,0.0,-999.0,80,-99.99,,,0.00,weatherlink.com 1.10,2013-12-17 03:07:00,
2013-12-16 21:22:00,41.1,36.0,30.27,WSW,258,0.0,-999.0,82,-99.99,,,0.00,weatherlink.com 1.10,2013-12-17 03:22:00,
2013-12-16 21:37:00,40.6,36.0,30.27,WSW,258,0.0,-999.0,83,-99.99,,,0.00,weatherlink.com 1.10,2013-12-17 03:37:00,
2013-12-16 21:52:00,40.3,36.0,30.27,WSW,258,0.0,-999.0,83,-99.99,,,0.00,weatherlink.com 1.10,2013-12-17 03:52:00,
2013-12-16 22:07:00,39.9,35.0,30.27,WSW,258,0.0,-999.0,83,-99.99,,,0.00,weatherlink.com 1.10,2013-12-17 04:07:00,
2013-12-16 22:22:00,39.5,35.0,30.27,WSW,258,0.0,-999.0,83,-99.99,,,0.00,weatherlink.com 1.10,2013-12-17 04:22:00,
2013-12-16 22:37:00,39.1,35.0,30.27,WSW,258,0.0,-999.0,84,-99.99,,,0.00,weatherlink.com 1.10,2013-12-17 04:37:00,
2013-12-16 22:52:00,39.1,35.0,30.27,WSW,258,0.0,-999.0,86,-99.99,,,0.00,weatherlink.com 1.10,2013-12-17 04:52:00,
2013-12-16 23:07:00,39.2,35.0,30.27,WSW,258,0.0,-999.0,86,-99.99,,,0.00,weatherlink.com 1.10,2013-12-17 05:07:00,
2013-12-16 23:22:00,39.3,36.0,30.26,WSW,258,0.0,-999.0,87,-99.99,,,0.00,weatherlink.com 1.10,2013-12-17 05:22:00,
2013-12-16 23:37:00,39.6,36.0,30.26,WSW,258,0.0,-999.0,88,-99.99,,,0.00,weatherlink.com 1.10,2013-12-17 05:37:00,
2013-12-16 23:52:00,39.6,37.0,30.26,WSW,258,0.0,-999.0,89,-99.99,,,0.00,weatherlink.com 1.10,2013-12-17 05:52:00,